createdAt,value
2016-10-01T00:04:55.243Z,84.34
2016-10-01T00:09:51.908Z,84.63
2016-10-01T00:14:49.131Z,84.16
2016-10-01T00:19:45.944Z,83.20
2016-10-01T00:24:42.601Z,82.57
2016-10-01T00:29:38.964Z,82.86
2016-10-01T00:34:36.039Z,82.53
2016-10-01T00:39:32.601Z,83.87
2016-10-01T00:44:28.991Z,84.16
2016-10-01T00:49:25.807Z,84.34
2016-10-01T00:54:23.396Z,84.92
2016-10-01T00:59:19.951Z,85.97
2016-10-01T01:04:17.371Z,85.54
2016-10-01T01:09:14.380Z,85.64
2016-10-01T01:14:10.861Z,86.11
2016-10-01T01:19:08.382Z,86.21
2016-10-01T01:24:04.605Z,86.02
2016-10-01T01:29:02.558Z,86.69
2016-10-01T01:33:59.306Z,87.16
2016-10-01T01:38:55.704Z,86.92
2016-10-01T01:43:52.308Z,88.12
2016-10-01T01:48:49.230Z,88.21
2016-10-01T01:53:45.622Z,88.31
2016-10-01T01:58:41.836Z,88.59
2016-10-01T02:03:38.720Z,87.93
2016-10-01T02:08:35.147Z,88.59
2016-10-01T02:13:31.297Z,88.26
2016-10-01T02:18:27.757Z,87.87
2016-10-01T02:23:24.739Z,88.83
2016-10-01T02:28:21.280Z,90.22
2016-10-01T02:33:17.701Z,92.12
2016-10-01T02:38:14.655Z,92.88
2016-10-01T02:43:15.656Z,94.03
2016-10-01T02:48:13.627Z,94.22
2016-10-01T02:53:09.878Z,94.03
2016-10-01T02:58:06.716Z,94.41
2016-10-01T03:03:04.131Z,94.22
2016-10-01T03:08:01.017Z,94.70
2016-10-01T03:12:57.218Z,94.70
2016-10-01T03:17:53.825Z,94.60
2016-10-01T03:22:50.550Z,94.22
2016-10-01T03:27:48.802Z,93.51
2016-10-01T03:32:45.086Z,92.93
2016-10-01T03:37:43.002Z,92.65
2016-10-01T03:42:39.170Z,92.83
2016-10-01T03:47:36.031Z,94.22
2016-10-01T03:52:32.604Z,94.70
2016-10-01T03:57:30.453Z,94.70
2016-10-01T04:02:26.648Z,95.46
2016-10-01T04:07:23.258Z,94.51
2016-10-01T04:12:19.607Z,94.36
2016-10-01T04:17:17.087Z,93.98
2016-10-01T04:22:13.624Z,94.36
2016-10-01T04:27:16.330Z,94.07
2016-10-01T04:32:11.826Z,94.74
2016-10-01T04:37:09.881Z,93.98
2016-10-01T04:42:05.818Z,93.70
2016-10-01T04:47:02.304Z,93.41
2016-10-01T04:51:59.353Z,94.17
2016-10-01T04:56:56.177Z,94.93
2016-10-01T05:01:52.715Z,95.12
2016-10-01T05:06:49.447Z,95.12
2016-10-01T05:11:46.617Z,94.93
2016-10-01T05:16:43.182Z,95.37
2016-10-01T05:21:40.428Z,95.70
2016-10-01T05:26:37.253Z,95.22
2016-10-01T05:31:34.081Z,95.12
2016-10-01T05:36:30.738Z,95.03
2016-10-01T05:41:27.533Z,94.17
2016-10-01T05:46:24.367Z,93.98
2016-10-01T05:51:21.176Z,93.98
2016-10-01T05:56:17.986Z,94.31
2016-10-01T06:01:14.541Z,94.84
2016-10-01T06:06:10.833Z,94.27
2016-10-01T06:11:07.757Z,94.74
2016-10-01T06:16:04.454Z,94.74
2016-10-01T06:21:01.334Z,94.41
2016-10-01T06:25:58.092Z,94.31
2016-10-01T06:30:56.951Z,94.31
2016-10-01T06:35:53.636Z,93.74
2016-10-01T06:40:50.416Z,94.12
2016-10-01T06:45:47.302Z,94.41
2016-10-01T06:50:43.792Z,94.41
2016-10-01T06:55:40.506Z,93.84
2016-10-01T07:00:37.262Z,94.41
2016-10-01T07:05:34.615Z,94.60
2016-10-01T07:15:31.521Z,94.60
2016-10-01T07:20:28.075Z,93.36
2016-10-01T07:25:24.677Z,92.88
2016-10-01T07:30:21.489Z,91.59
2016-10-01T07:35:19.123Z,91.40
2016-10-01T07:40:15.808Z,90.68
2016-10-01T07:45:12.605Z,90.11
2016-10-01T07:50:09.205Z,89.92
2016-10-01T07:55:05.624Z,89.34
2016-10-01T08:00:02.651Z,89.15
2016-10-01T08:04:59.191Z,89.15
2016-10-01T08:09:56.272Z,88.96
2016-10-01T08:14:53.110Z,88.96
2016-10-01T08:19:50.906Z,89.44
2016-10-01T08:24:47.324Z,89.73
2016-10-01T08:29:43.945Z,90.68
2016-10-01T08:34:40.623Z,90.92
2016-10-01T08:39:37.197Z,90.49
2016-10-01T08:44:34.981Z,90.92
2016-10-01T08:49:31.125Z,90.78
2016-10-01T08:54:27.691Z,91.35
2016-10-01T08:59:24.591Z,91.64
2016-10-01T09:04:21.069Z,91.39
2016-10-01T09:09:17.797Z,91.59
2016-10-01T09:14:14.634Z,91.78
2016-10-01T09:19:11.399Z,90.63
2016-10-01T09:24:08.254Z,90.92
2016-10-01T09:29:05.554Z,89.72
2016-10-01T09:34:02.181Z,90.10
2016-10-01T09:39:00.075Z,89.43
2016-10-01T09:43:56.509Z,88.33
2016-10-01T09:48:53.492Z,87.76
2016-10-01T09:53:50.119Z,88.48
2016-10-01T09:58:47.006Z,88.04
2016-10-01T10:03:43.604Z,88.13
2016-10-01T10:08:41.955Z,86.99
2016-10-01T10:13:38.713Z,85.12
2016-10-01T10:18:38.331Z,84.35
2016-10-01T10:23:35.178Z,84.26
2016-10-01T10:28:31.278Z,85.31
2016-10-01T10:33:29.150Z,83.39
2016-10-01T10:38:25.920Z,82.67
2016-10-01T10:43:22.128Z,81.52
2016-10-01T10:48:20.400Z,80.32
2016-10-01T10:53:17.188Z,77.92
2016-10-01T10:58:14.039Z,77.92
2016-10-01T11:03:11.779Z,77.92
2016-10-01T11:08:07.760Z,78.36
2016-10-01T11:13:04.604Z,78.93
2016-10-01T11:18:01.329Z,78.93
2016-10-01T11:23:00.800Z,75.40
2016-10-01T11:27:57.265Z,73.10
2016-10-01T11:32:53.039Z,74.89
2016-10-01T11:37:51.155Z,75.33
2016-10-01T11:42:48.030Z,74.93
2016-10-01T11:47:45.192Z,72.75
2016-10-01T11:52:40.924Z,73.49
2016-10-01T11:57:37.069Z,74.22
2016-10-01T12:02:32.765Z,74.02
2016-10-01T12:07:28.566Z,77.06
2016-10-01T12:12:25.547Z,77.06
2016-10-01T12:17:23.004Z,77.06
2016-10-01T12:22:19.321Z,77.53
2016-10-01T12:27:17.016Z,76.39
2016-10-01T12:32:13.457Z,75.71
2016-10-01T12:37:10.230Z,77.06
2016-10-01T12:42:06.735Z,75.08
2016-10-01T12:47:03.526Z,74.69
2016-10-01T12:52:00.152Z,73.68
2016-10-01T13:02:03.253Z,73.77
2016-10-01T13:07:00.031Z,73.55
2016-10-01T13:11:56.919Z,74.02
2016-10-01T13:16:53.340Z,74.41
2016-10-01T13:21:49.479Z,75.46
2016-10-01T13:26:45.952Z,75.46
2016-10-01T13:31:42.334Z,76.96
2016-10-01T13:36:39.153Z,77.06
2016-10-01T13:41:35.867Z,76.77
2016-10-01T13:46:32.945Z,77.44
2016-10-01T13:51:29.268Z,77.06
2016-10-01T13:56:26.149Z,75.52
2016-10-01T14:01:22.875Z,74.47
2016-10-01T14:06:19.542Z,75.14
2016-10-01T14:11:16.199Z,75.43
2016-10-01T14:16:12.909Z,75.23
2016-10-01T14:21:09.418Z,76.39
2016-10-01T14:26:05.945Z,75.33
2016-10-01T14:31:02.396Z,75.33
2016-10-01T14:35:58.968Z,75.10
2016-10-01T14:40:56.473Z,76.15
2016-10-01T14:45:52.484Z,76.35
2016-10-01T14:50:49.127Z,76.82
2016-10-01T14:55:45.841Z,75.90
2016-10-01T15:00:42.559Z,75.90
2016-10-01T15:05:41.069Z,75.43
2016-10-01T15:10:37.777Z,75.23
2016-10-01T15:15:35.009Z,74.51
2016-10-01T15:20:32.145Z,73.26
2016-10-01T15:25:29.452Z,72.59
2016-10-01T15:30:28.008Z,73.83
2016-10-01T15:35:24.193Z,74.41
2016-10-01T15:40:20.618Z,75.71
2016-10-01T15:45:18.347Z,75.52
2016-10-01T15:50:14.933Z,76.73
2016-10-01T15:55:12.314Z,77.31
2016-10-01T16:00:08.461Z,77.59
2016-10-01T16:05:05.187Z,77.88
2016-10-01T16:10:01.934Z,78.45
2016-10-01T16:14:58.921Z,78.74
2016-10-01T16:19:55.483Z,78.36
2016-10-01T16:24:52.043Z,78.64
2016-10-01T16:29:48.562Z,80.33
2016-10-01T16:34:45.034Z,80.71
2016-10-01T16:39:41.539Z,80.81
2016-10-01T16:44:38.167Z,81.38
2016-10-01T16:49:35.256Z,81.57
2016-10-01T16:54:31.712Z,82.06
2016-10-01T16:59:27.938Z,82.97
2016-10-01T17:04:24.722Z,83.93
2016-10-01T17:09:21.572Z,85.17
2016-10-01T17:14:17.955Z,85.41
2016-10-01T17:19:14.665Z,85.94
2016-10-01T17:24:11.514Z,85.89
2016-10-01T17:29:08.172Z,86.57
2016-10-01T17:34:06.080Z,86.76
2016-10-01T17:39:02.223Z,87.76
2016-10-01T17:43:58.898Z,87.48
2016-10-01T17:48:55.365Z,88.34
2016-10-01T17:53:51.871Z,89.39
2016-10-01T18:03:44.882Z,91.25
2016-10-01T18:08:42.541Z,92.30
2016-10-01T18:13:38.847Z,93.16
2016-10-01T18:18:35.362Z,92.88
2016-10-01T18:23:31.930Z,93.84
2016-10-01T18:28:28.484Z,94.27
2016-10-01T18:33:25.757Z,94.41
2016-10-01T18:38:22.186Z,93.65
2016-10-01T18:43:18.711Z,93.45
2016-10-01T18:48:15.340Z,93.41
2016-10-01T18:53:12.225Z,94.65
2016-10-01T18:58:08.706Z,94.07
2016-10-01T19:03:05.005Z,94.84
2016-10-01T19:08:01.753Z,95.12
2016-10-01T19:12:58.930Z,95.32
2016-10-01T19:17:55.448Z,96.17
2016-10-01T19:22:51.896Z,96.13
2016-10-01T19:27:48.797Z,96.13
2016-10-01T19:32:44.876Z,96.51
2016-10-01T19:37:41.451Z,95.84
2016-10-01T19:42:37.971Z,95.89
2016-10-01T19:47:34.571Z,95.22
2016-10-01T19:52:31.187Z,94.17
2016-10-01T19:57:27.761Z,93.84
2016-10-01T20:02:24.666Z,92.97
2016-10-01T20:07:21.383Z,92.88
2016-10-01T20:12:17.940Z,93.26
2016-10-01T20:17:14.425Z,97.89
2016-10-01T20:22:11.535Z,99.80
2016-10-01T20:27:08.319Z,99.99
2016-10-01T20:32:04.838Z,99.99
2016-10-01T20:37:01.498Z,99.99
2016-10-01T20:41:58.344Z,99.99
2016-10-01T20:46:55.472Z,99.99
2016-10-01T20:51:52.558Z,99.99
2016-10-01T20:56:49.014Z,99.99
2016-10-01T21:01:45.302Z,99.99
2016-10-01T21:06:41.840Z,99.99
2016-10-01T21:11:38.156Z,99.99
2016-10-01T21:16:34.841Z,99.99
2016-10-01T21:21:31.183Z,99.99
2016-10-01T21:26:27.741Z,99.99
2016-10-01T21:31:24.283Z,99.99
2016-10-01T21:36:20.771Z,99.99
2016-10-01T21:41:18.072Z,99.99
2016-10-01T21:46:14.908Z,99.99
2016-10-01T21:51:11.041Z,99.99
2016-10-01T21:56:07.417Z,99.99
2016-10-01T22:01:04.084Z,99.99
2016-10-01T22:06:00.579Z,99.99
2016-10-01T22:10:57.443Z,99.99
2016-10-01T22:15:53.933Z,99.99
2016-10-01T22:20:50.518Z,99.99
2016-10-01T22:25:46.813Z,99.99
2016-10-01T22:30:43.276Z,99.99
2016-10-01T22:35:40.120Z,99.99
2016-10-01T22:40:37.946Z,99.99
2016-10-01T22:45:34.946Z,99.99
2016-10-01T22:50:31.499Z,99.99
2016-10-01T22:55:28.161Z,99.99
2016-10-01T23:00:24.809Z,99.99
2016-10-01T23:05:21.734Z,99.99
2016-10-01T23:10:18.356Z,99.99
2016-10-01T23:15:15.015Z,99.99
2016-10-01T23:20:11.380Z,99.99
2016-10-01T23:25:08.064Z,99.99
2016-10-01T23:30:04.726Z,99.99
2016-10-01T23:35:01.243Z,99.99
2016-10-01T23:39:57.876Z,99.99
2016-10-01T23:44:54.565Z,99.99
2016-10-01T23:49:52.226Z,99.99
2016-10-01T23:54:48.888Z,99.99
2016-10-01T23:59:46.769Z,99.99
